Time;durP1;ratioP1;P1;durP2;ratioP2;P2;SDS_P1;SDS_P2;PMS_P1;PMS_P2;Temp;Humidity;BMP_temperature;BMP_pressure;BME280_temperature;BME280_humidity;BME280_pressure;Samples;Min_cycle;Max_cycle;Signal;HPM_P1;HPM_P2
2023/06/17 00:00:42;;;;;;;9.32;2.55;;;;;;;16.59;100.00;100519.94;4941527;28;20252;-76
2023/06/17 00:03:09;;;;;;;13.48;3.72;;;;;;;16.81;100.00;100512.53;4942473;28;20240;-78
2023/06/17 00:05:36;;;;;;;10.57;3.70;;;;;;;16.41;100.00;100544.22;4937694;28;20269;-77
2023/06/17 00:08:03;;;;;;;8.77;2.50;;;;;;;16.36;100.00;100591.44;4938078;28;20229;-77
2023/06/17 00:10:29;;;;;;;15.82;4.30;;;;;;;16.22;100.00;100578.25;4936533;28;20228;-76
2023/06/17 00:12:58;;;;;;;9.35;2.60;;;;;;;16.30;100.00;100608.41;4936508;28;20230;-76
2023/06/17 00:15:25;;;;;;;25.63;6.07;;;;;;;16.28;100.00;100585.31;4931604;28;20272;-78
2023/06/17 00:17:52;;;;;;;13.35;3.53;;;;;;;16.24;100.00;100595.13;4941558;28;20229;-77
2023/06/17 00:20:20;;;;;;;15.15;3.95;;;;;;;16.29;100.00;100617.31;4935624;28;20229;-75
2023/06/17 00:22:47;;;;;;;14.35;3.80;;;;;;;16.16;100.00;100615.69;4936542;28;20233;-76
2023/06/17 00:25:13;;;;;;;11.60;3.15;;;;;;;16.23;100.00;100632.53;4941256;28;20689;-81
2023/06/17 00:27:40;;;;;;;9.80;2.70;;;;;;;16.29;100.00;100651.13;4951720;28;20246;-76
2023/06/17 00:30:08;;;;;;;12.85;3.42;;;;;;;16.42;100.00;100665.22;4942414;28;20233;-76
2023/06/17 00:32:35;;;;;;;10.10;3.25;;;;;;;16.33;100.00;100642.19;4935080;28;21541;-78
2023/06/17 00:35:05;;;;;;;9.07;2.45;;;;;;;16.54;100.00;100638.38;4943405;28;20767;-76
2023/06/17 00:37:32;;;;;;;17.05;4.20;;;;;;;16.32;100.00;100635.97;4933788;28;20261;-83
2023/06/17 00:39:59;;;;;;;13.50;3.60;;;;;;;16.44;100.00;100624.25;4930685;28;20246;-76
2023/06/17 00:42:26;;;;;;;18.33;4.40;;;;;;;16.62;100.00;100620.47;4938899;28;20241;-76
2023/06/17 00:44:52;;;;;;;12.45;3.28;;;;;;;16.64;100.00;100597.31;4942382;28;20218;-76
2023/06/17 00:47:19;;;;;;;14.48;3.67;;;;;;;16.58;100.00;100546.66;4933566;28;20666;-78
2023/06/17 00:49:47;;;;;;;16.60;4.22;;;;;;;16.64;100.00;100533.22;4940776;28;20292;-76
2023/06/17 00:52:14;;;;;;;9.82;2.75;;;;;;;16.60;100.00;100508.38;4937042;29;20317;-76
2023/06/17 00:55:01;;;;;;;10.60;2.90;;;;;;;16.72;100.00;100485.09;4937443;28;20770;-75
2023/06/17 00:57:29;;;;;;;19.20;4.63;;;;;;;16.68;100.00;100489.59;4937455;28;20222;-76
2023/06/17 00:59:55;;;;;;;9.10;2.45;;;;;;;16.69;100.00;100479.78;4942511;28;20232;-76
2023/06/17 01:02:25;;;;;;;13.18;3.53;;;;;;;16.86;100.00;100477.75;4937402;28;20244;-77
2023/06/17 01:04:53;;;;;;;15.55;4.18;;;;;;;16.69;100.00;100520.72;4942109;28;20238;-75
2023/06/17 01:07:30;;;;;;;21.45;5.63;;;;;;;16.59;100.00;100522.63;4937314;28;20221;-80
2023/06/17 01:10:02;;;;;;;12.63;3.17;;;;;;;16.48;100.00;100531.69;4941301;28;20245;-76
2023/06/17 01:12:29;;;;;;;15.95;4.18;;;;;;;16.38;100.00;100540.72;4933976;28;20234;-76
2023/06/17 01:15:01;;;;;;;8.77;2.33;;;;;;;16.49;100.00;100512.97;4940568;28;20237;-76
2023/06/17 01:17:28;;;;;;;23.90;6.03;;;;;;;16.73;100.00;100493.06;4934463;28;20282;-74
2023/06/17 01:19:56;;;;;;;12.73;3.38;;;;;;;16.67;100.00;100492.28;4938402;28;20656;-74
2023/06/17 01:22:24;;;;;;;20.00;4.72;;;;;;;16.42;100.00;100539.75;4935364;28;20245;-74
2023/06/17 01:24:51;;;;;;;13.60;3.55;;;;;;;16.38;100.00;100509.56;4938816;28;20226;-74
2023/06/17 01:27:18;;;;;;;17.30;4.32;;;;;;;16.36;100.00;100534.50;4933897;28;20228;-74
2023/06/17 01:29:48;;;;;;;11.88;3.08;;;;;;;15.86;100.00;100530.66;4938556;28;20237;-74
2023/06/17 01:32:16;;;;;;;12.43;3.15;;;;;;;15.72;100.00;100524.59;4936944;28;20990;-74
2023/06/17 01:34:57;;;;;;;11.27;3.00;;;;;;;15.77;100.00;100518.31;4940875;28;20238;-73
2023/06/17 01:37:29;;;;;;;13.90;3.83;;;;;;;15.68;100.00;100523.75;4928656;28;20233;-75
2023/06/17 01:39:56;;;;;;;15.57;4.32;;;;;;;15.63;100.00;100545.13;4936984;28;20256;-75
2023/06/17 01:42:31;;;;;;;17.77;4.40;;;;;;;15.66;100.00;100561.09;4936167;28;20726;-74
2023/06/17 01:44:59;;;;;;;9.18;2.58;;;;;;;15.64;100.00;100576.22;4940753;28;20221;-74
2023/06/17 01:47:26;;;;;;;24.45;5.90;;;;;;;15.50;100.00;100593.16;4935415;28;20233;-75
2023/06/17 01:49:57;;;;;;;11.10;3.28;;;;;;;15.40;100.00;100597.69;4941308;28;20578;-76
2023/06/17 01:52:24;;;;;;;16.10;4.20;;;;;;;15.48;100.00;100605.63;4933128;28;20637;-74
2023/06/17 01:54:51;;;;;;;12.50;3.17;;;;;;;15.61;100.00;100615.34;4941378;28;20248;-74
2023/06/17 01:57:18;;;;;;;15.10;3.92;;;;;;;15.75;100.00;100632.09;4935074;28;20691;-74
2023/06/17 01:59:44;;;;;;;11.35;3.10;;;;;;;15.49;100.00;100652.69;4954701;28;20233;-74
2023/06/17 02:02:11;;;;;;;13.30;3.53;;;;;;;15.27;100.00;100644.84;4939997;28;20229;-74
2023/06/17 02:04:38;;;;;;;9.23;2.50;;;;;;;15.21;100.00;100631.56;4936148;28;20241;-75
2023/06/17 02:07:04;;;;;;;15.52;4.05;;;;;;;15.31;100.00;100646.59;4940527;28;20229;-74
2023/06/17 02:09:31;;;;;;;17.45;4.25;;;;;;;15.19;100.00;100656.47;4937838;28;20230;-74
2023/06/17 02:11:58;;;;;;;10.77;2.88;;;;;;;14.93;100.00;100648.63;4940700;28;20233;-75
2023/06/17 02:14:24;;;;;;;19.50;4.70;;;;;;;15.07;100.00;100637.88;4932515;28;20238;-75
2023/06/17 02:16:52;;;;;;;13.65;3.63;;;;;;;15.15;100.00;100652.03;4940635;28;20233;-75
2023/06/17 02:19:21;;;;;;;20.30;4.95;;;;;;;15.09;100.00;100660.06;4936116;28;20313;-75
2023/06/17 02:21:48;;;;;;;15.75;3.97;;;;;;;15.00;100.00;100643.25;4940142;28;20241;-75
2023/06/17 02:24:15;;;;;;;10.05;2.72;;;;;;;14.75;100.00;100652.25;4932334;28;20241;-73
2023/06/17 02:26:41;;;;;;;12.73;3.53;;;;;;;14.57;100.00;100655.00;4939937;28;20249;-75
2023/06/17 02:29:08;;;;;;;11.73;2.95;;;;;;;14.27;100.00;100659.47;4941476;28;20225;-74
2023/06/17 02:31:35;;;;;;;13.63;3.15;;;;;;;14.33;100.00;100677.22;4925814;28;20238;-81
2023/06/17 02:34:02;;;;;;;10.75;2.80;;;;;;;14.55;100.00;100699.38;4941134;28;20635;-76
2023/06/17 02:36:28;;;;;;;19.48;4.78;;;;;;;14.58;100.00;100704.69;4933472;28;20222;-76
2023/06/17 02:38:58;;;;;;;8.73;2.33;;;;;;;14.43;100.00;100700.28;4943002;28;20236;-80
2023/06/17 02:41:25;;;;;;;15.15;3.75;;;;;;;14.21;100.00;100706.47;4938731;28;20234;-76
2023/06/17 02:43:51;;;;;;;13.00;3.22;;;;;;;14.16;100.00;100730.41;4937464;28;20601;-81
2023/06/17 02:46:18;;;;;;;15.88;3.90;;;;;;;14.45;100.00;100748.19;4934510;28;20690;-77
2023/06/17 02:48:45;;;;;;;12.57;3.00;;;;;;;13.96;100.00;100761.44;4943155;28;20237;-76
2023/06/17 02:51:11;;;;;;;13.68;3.40;;;;;;;13.67;100.00;100746.34;4939710;28;20232;-77
2023/06/17 02:53:38;;;;;;;12.15;2.88;;;;;;;13.73;100.00;100745.47;4936229;28;20241;-76
2023/06/17 02:56:05;;;;;;;11.98;2.97;;;;;;;13.82;100.00;100763.22;4941892;28;20234;-78
2023/06/17 02:58:32;;;;;;;17.88;4.30;;;;;;;13.90;100.00;100767.66;4936558;28;20233;-76
2023/06/17 03:00:59;;;;;;;11.60;2.85;;;;;;;13.99;100.00;100766.75;4941215;28;20262;-77
2023/06/17 03:03:34;;;;;;;21.88;5.43;;;;;;;14.06;100.00;100764.09;4950175;28;20248;-77
2023/06/17 03:06:04;;;;;;;12.18;3.15;;;;;;;14.13;100.00;100759.69;4938279;28;20283;-76
2023/06/17 03:08:38;;;;;;;19.20;4.57;;;;;;;14.07;100.00;100757.00;4936412;28;20222;-76
2023/06/17 03:11:05;;;;;;;13.82;3.28;;;;;;;14.05;100.00;100758.78;4936170;28;20230;-74
2023/06/17 03:13:32;;;;;;;20.55;4.72;;;;;;;14.03;100.00;100793.34;4931186;28;20232;-74
2023/06/17 03:16:00;;;;;;;11.68;2.95;;;;;;;13.71;100.00;100789.78;4941846;28;20238;-74
2023/06/17 03:18:28;;;;;;;22.40;5.38;;;;;;;13.73;100.00;100780.91;4930169;28;20292;-74
2023/06/17 03:20:54;;;;;;;15.88;3.72;;;;;;;13.86;100.00;100795.13;4943442;28;20228;-74
2023/06/17 03:23:22;;;;;;;24.45;5.80;;;;;;;14.05;100.00;100782.72;4937056;28;20225;-74
2023/06/17 03:25:52;;;;;;;13.30;3.28;;;;;;;14.05;100.00;100774.75;4942739;28;20300;-75
2023/06/17 03:28:19;;;;;;;22.67;5.25;;;;;;;13.86;100.00;100780.94;4944290;28;20534;-74
2023/06/17 03:30:46;;;;;;;14.80;3.55;;;;;;;14.04;100.00;100794.25;4944620;28;20237;-74
2023/06/17 03:33:13;;;;;;;16.40;3.88;;;;;;;13.97;100.00;100825.25;4941303;28;20222;-74
2023/06/17 03:35:40;;;;;;;10.82;2.80;;;;;;;13.85;100.00;100827.00;4940350;28;20249;-75
2023/06/17 03:38:08;;;;;;;14.50;3.78;;;;;;;13.93;100.00;100851.84;4942887;28;20226;-76
2023/06/17 03:40:35;;;;;;;17.45;4.15;;;;;;;13.98;100.00;100843.00;4938372;28;21605;-76
2023/06/17 03:43:02;;;;;;;13.10;3.08;;;;;;;13.74;100.00;100866.88;4939404;28;20276;-77
2023/06/17 03:45:30;;;;;;;26.60;6.10;;;;;;;13.73;100.00;100863.31;4938768;28;20234;-76
2023/06/17 03:47:58;;;;;;;16.60;3.97;;;;;;;13.88;100.00;100858.94;4944021;28;20729;-76
2023/06/17 03:50:25;;;;;;;23.73;5.70;;;;;;;13.92;100.00;100871.34;4929061;28;20237;-74
2023/06/17 03:52:51;;;;;;;12.98;3.13;;;;;;;13.72;100.00;100873.94;4943916;28;20233;-76
2023/06/17 03:55:18;;;;;;;24.33;5.50;;;;;;;13.63;100.00;100865.94;4935083;28;20233;-77
2023/06/17 03:57:45;;;;;;;11.32;2.70;;;;;;;13.71;100.00;100851.78;4957693;28;20226;-76
2023/06/17 04:00:13;;;;;;;16.80;3.95;;;;;;;13.69;100.00;100861.53;4941404;28;20280;-77
2023/06/17 04:02:44;;;;;;;12.60;3.08;;;;;;;13.60;100.00;100882.75;4935237;28;20706;-76
2023/06/17 04:05:12;;;;;;;15.40;3.67;;;;;;;13.63;100.00;100873.91;4945509;28;20230;-79
2023/06/17 04:07:39;;;;;;;17.83;4.05;;;;;;;13.61;100.00;100876.56;4936687;28;20249;-76
2023/06/17 04:10:08;;;;;;;13.52;3.33;;;;;;;13.78;100.00;100872.19;4942399;28;20230;-78
2023/06/17 04:12:38;;;;;;;14.65;3.60;;;;;;;13.84;100.00;100875.75;4934235;28;23210;-76
2023/06/17 04:15:06;;;;;;;12.73;3.03;;;;;;;14.00;100.00;100874.91;4943878;28;20248;-82
2023/06/17 04:17:36;;;;;;;22.60;5.25;;;;;;;14.12;100.00;100852.75;4938909;28;20236;-74
2023/06/17 04:20:10;;;;;;;15.45;3.53;;;;;;;14.26;100.00;100822.63;4955420;28;20233;-74
2023/06/17 04:22:41;;;;;;;12.75;2.92;;;;;;;14.18;100.00;100815.53;4935302;28;20307;-75
2023/06/17 04:25:12;;;;;;;11.38;2.88;;;;;;;14.22;100.00;100833.25;4941600;28;20237;-74
2023/06/17 04:27:39;;;;;;;12.02;2.92;;;;;;;14.22;100.00;100839.47;4939568;28;20234;-75
2023/06/17 04:30:08;;;;;;;11.65;2.75;;;;;;;14.27;100.00;100823.50;4943942;28;20236;-74
2023/06/17 04:32:38;;;;;;;14.65;3.60;;;;;;;14.30;100.00;100832.41;4938575;28;20252;-76
2023/06/17 04:35:06;;;;;;;17.92;4.13;;;;;;;14.20;100.00;100835.03;4943295;28;20248;-76
2023/06/17 04:37:34;;;;;;;29.35;7.60;;;;;;;13.96;100.00;100838.56;4935329;28;20244;-76
2023/06/17 04:40:04;;;;;;;13.30;3.30;;;;;;;14.10;100.00;100851.00;4943205;28;20249;-76
2023/06/17 04:42:33;;;;;;;29.13;6.10;;;;;;;14.20;100.00;100864.28;4937368;28;20244;-76
2023/06/17 04:45:00;;;;;;;15.30;3.53;;;;;;;14.33;100.00;100852.81;4930909;28;20241;-74
2023/06/17 04:47:28;;;;;;;62.47;10.95;;;;;;;14.44;100.00;100858.16;4933957;28;20240;-76
2023/06/17 04:49:55;;;;;;;14.00;3.25;;;;;;;14.44;100.00;100840.44;4938602;28;20289;-79
2023/06/17 04:52:24;;;;;;;51.92;9.77;;;;;;;14.56;100.00;100847.53;4936709;28;20234;-78
2023/06/17 04:54:51;;;;;;;14.48;3.67;;;;;;;14.66;100.00;100849.28;4939763;28;20238;-81
2023/06/17 04:57:18;;;;;;;52.67;11.15;;;;;;;14.79;100.00;100847.50;4932503;28;20241;-80
2023/06/17 04:59:45;;;;;;;15.77;3.75;;;;;;;14.78;100.00;100835.97;4940286;28;20260;-78
2023/06/17 05:02:13;;;;;;;16.85;3.95;;;;;;;14.91;100.00;100816.41;4941363;28;20229;-79
2023/06/17 05:04:40;;;;;;;14.05;3.35;;;;;;;15.11;100.00;100815.44;4936878;28;20226;-78
2023/06/17 05:07:07;;;;;;;11.65;2.85;;;;;;;15.24;100.00;100820.72;4944428;28;20238;-79
2023/06/17 05:09:33;;;;;;;24.67;6.72;;;;;;;15.49;100.00;100852.59;4937956;28;20309;-78
2023/06/17 05:12:00;;;;;;;14.73;3.60;;;;;;;15.67;100.00;100853.47;4946086;28;20644;-79
2023/06/17 05:14:27;;;;;;;29.85;7.00;;;;;;;15.80;100.00;100832.97;4934798;28;20230;-78
2023/06/17 05:16:54;;;;;;;12.20;2.88;;;;;;;15.86;100.00;100806.25;4944291;28;20698;-80
2023/06/17 05:19:21;;;;;;;34.08;7.72;;;;;;;15.88;100.00;100787.56;4936622;28;20229;-80
2023/06/17 05:21:48;;;;;;;19.08;4.53;;;;;;;15.94;100.00;100768.84;4942900;28;20234;-79
2023/06/17 05:24:14;;;;;;;21.13;5.22;;;;;;;16.11;100.00;100766.94;4939400;28;20225;-79
2023/06/17 05:26:41;;;;;;;15.15;3.85;;;;;;;16.37;100.00;100805.84;4942064;28;20233;-79
2023/06/17 05:29:08;;;;;;;17.13;4.05;;;;;;;16.45;100.00;100810.22;4944020;28;20320;-79
2023/06/17 05:31:35;;;;;;;14.10;3.28;;;;;;;16.58;100.00;100825.22;4936884;28;20244;-79
2023/06/17 05:34:02;;;;;;;14.60;3.53;;;;;;;16.78;100.00;100835.75;4937718;28;20229;-80
2023/06/17 05:36:28;;;;;;;31.70;6.95;;;;;;;16.95;100.00;100825.81;4936444;28;20243;-79
2023/06/17 05:38:55;;;;;;;11.55;2.83;;;;;;;17.11;100.00;100793.56;4937806;28;20241;-79
2023/06/17 05:41:22;;;;;;;56.60;11.07;;;;;;;17.29;100.00;100771.97;4935258;28;20245;-79
2023/06/17 05:43:49;;;;;;;14.35;3.30;;;;;;;17.56;100.00;100781.41;4940784;28;20240;-80
2023/06/17 05:46:16;;;;;;;14.18;3.50;;;;;;;17.48;100.00;100719.13;4943330;28;20235;-76
2023/06/17 05:48:42;;;;;;;11.63;2.85;;;;;;;17.55;100.00;100670.88;4939394;28;20249;-76
2023/06/17 05:51:09;;;;;;;16.77;3.83;;;;;;;17.70;100.00;100660.88;4941614;28;20234;-76
2023/06/17 05:53:36;;;;;;;12.95;3.00;;;;;;;17.78;100.00;100610.78;4935414;28;20272;-76
2023/06/17 05:56:03;;;;;;;13.38;3.25;;;;;;;17.97;100.00;100641.66;4938138;28;20265;-76
2023/06/17 05:58:30;;;;;;;25.42;6.40;;;;;;;18.09;100.00;100619.16;4935485;28;20240;-76
2023/06/17 06:00:56;;;;;;;12.82;3.00;;;;;;;18.43;100.00;100588.16;4939549;29;20241;-77
2023/06/17 06:03:23;;;;;;;27.10;6.65;;;;;;;18.52;100.00;100587.06;4931903;28;20288;-76
2023/06/17 06:05:50;;;;;;;11.80;2.88;;;;;;;18.65;100.00;100582.38;4942567;28;20230;-76
2023/06/17 06:08:16;;;;;;;14.35;3.35;;;;;;;18.69;100.00;100559.97;4937049;28;20229;-74
2023/06/17 06:10:43;;;;;;;10.77;2.63;;;;;;;18.58;100.00;100508.38;4942170;28;20244;-75
2023/06/17 06:13:10;;;;;;;12.82;2.97;;;;;;;18.94;100.00;100482.56;4932880;28;20249;-75
2023/06/17 06:15:37;;;;;;;12.05;2.97;;;;;;;18.82;100.00;100481.06;4936677;28;20249;-75
2023/06/17 06:18:05;;;;;;;11.85;2.72;;;;;;;19.09;100.00;100476.81;4942140;28;20268;-75
2023/06/17 06:20:32;;;;;;;26.98;6.45;;;;;;;19.49;100.00;100527.63;4935434;28;20234;-75
2023/06/17 06:23:00;;;;;;;9.95;2.35;;;;;;;19.52;100.00;100447.16;4936817;28;20611;-75
2023/06/17 06:25:27;;;;;;;26.23;6.55;;;;;;;19.63;100.00;100394.06;4937180;28;20253;-75
2023/06/17 06:27:54;;;;;;;12.25;2.90;;;;;;;19.80;100.00;100402.50;4938826;28;20245;-75
2023/06/17 06:30:21;;;;;;;20.20;5.13;;;;;;;19.77;100.00;100337.31;4935957;28;20237;-75
2023/06/17 06:32:48;;;;;;;12.63;3.17;;;;;;;19.95;100.00;100290.25;4933887;28;20650;-75
2023/06/17 06:35:14;;;;;;;12.20;2.97;;;;;;;19.98;100.00;100248.09;4942174;28;20603;-75
2023/06/17 06:37:41;;;;;;;9.40;2.45;;;;;;;20.35;100.00;100285.34;4938055;28;20233;-74
2023/06/17 06:40:08;;;;;;;12.65;3.13;;;;;;;20.28;99.69;100216.66;4940616;28;20226;-75
2023/06/17 06:42:36;;;;;;;12.63;3.08;;;;;;;20.37;100.00;100221.72;4934501;28;20249;-75
2023/06/17 06:45:03;;;;;;;15.90;3.78;;;;;;;20.66;100.00;100242.22;4937232;28;20229;-75
2023/06/17 06:47:29;;;;;;;26.10;6.55;;;;;;;20.54;100.00;100205.03;4937102;28;20329;-76
2023/06/17 06:49:56;;;;;;;14.77;3.42;;;;;;;21.00;100.00;100244.59;4940627;28;20646;-76
2023/06/17 06:52:23;;;;;;;28.80;6.93;;;;;;;21.53;99.19;100235.47;4935400;28;20285;-76
2023/06/17 06:54:50;;;;;;;14.65;3.53;;;;;;;21.16;97.15;100156.16;4943049;28;20602;-76
2023/06/17 06:57:17;;;;;;;20.23;4.90;;;;;;;21.64;96.60;100184.78;4940866;28;20237;-76
2023/06/17 06:59:44;;;;;;;15.23;3.85;;;;;;;21.93;94.98;100171.00;4944991;28;20241;-75
2023/06/17 07:02:11;;;;;;;17.73;4.53;;;;;;;22.01;91.86;100112.31;4943626;28;20233;-76
2023/06/17 07:04:38;;;;;;;12.60;3.10;;;;;;;21.50;91.25;100025.72;4938656;28;20240;-75
2023/06/17 07:07:05;;;;;;;14.52;3.22;;;;;;;21.46;94.60;100067.16;4944234;28;20285;-75
2023/06/17 07:09:31;;;;;;;19.10;4.75;;;;;;;21.66;95.85;100086.03;4940322;28;20245;-75
2023/06/17 07:11:58;;;;;;;22.20;5.30;;;;;;;21.73;93.54;100061.47;4940713;28;20288;-76
2023/06/17 07:14:25;;;;;;;31.23;7.10;;;;;;;22.31;91.64;100087.75;4942155;28;20248;-78
2023/06/17 07:16:52;;;;;;;12.90;3.25;;;;;;;22.85;88.67;100080.81;4943586;28;20233;-78
2023/06/17 07:19:18;;;;;;;24.02;5.57;;;;;;;22.87;86.31;100024.97;4939372;28;20229;-75
2023/06/17 07:21:45;;;;;;;24.05;5.40;;;;;;;22.86;86.71;99999.84;4939111;28;20252;-75
2023/06/17 07:24:18;;;;;;;17.17;4.07;;;;;;;22.58;84.33;99918.53;4942803;28;20225;-76
2023/06/17 07:26:45;;;;;;;22.92;5.03;;;;;;;22.56;85.18;99905.13;4936788;28;20241;-75
2023/06/17 07:29:12;;;;;;;20.65;4.55;;;;;;;23.38;84.13;99975.66;4944559;28;20228;-79
2023/06/17 07:31:38;;;;;;;18.70;4.57;;;;;;;23.35;81.50;99900.28;4939316;28;20229;-75
2023/06/17 07:34:05;;;;;;;13.20;3.03;;;;;;;23.29;83.69;99893.38;4941786;28;20257;-76
2023/06/17 07:36:32;;;;;;;23.50;5.32;;;;;;;23.76;81.45;99911.66;4942378;28;20256;-77
2023/06/17 07:38:59;;;;;;;20.02;4.43;;;;;;;;;;4945201;28;20244;-76
2023/06/17 07:41:26;;;;;;;23.48;5.97;;;;;;;23.03;79.43;99766.22;4935180;28;20229;-76
2023/06/17 07:43:53;;;;;;;12.40;3.22;;;;;;;23.18;79.60;99778.88;4943515;28;20740;-75
2023/06/17 07:46:20;;;;;;;40.15;7.78;;;;;;;23.36;78.89;99774.34;4940040;28;20248;-75
2023/06/17 07:48:47;;;;;;;11.18;2.60;;;;;;;23.51;79.83;99777.09;4939176;28;20228;-76
2023/06/17 07:51:14;;;;;;;17.50;4.05;;;;;;;24.46;82.64;99894.28;4940170;28;20221;-83
2023/06/17 07:53:41;;;;;;;14.18;3.38;;;;;;;25.17;76.95;99869.47;4935246;28;20249;-78
2023/06/17 07:56:08;;;;;;;13.25;3.05;;;;;;;25.25;74.90;99807.63;4942501;28;20269;-78
2023/06/17 07:58:35;;;;;;;30.10;6.55;;;;;;;24.04;76.43;99651.72;4934585;28;20255;-78
2023/06/17 08:01:02;;;;;;;20.92;4.68;;;;;;;24.48;78.96;99742.84;4939578;28;20228;-78
2023/06/17 08:03:29;;;;;;;40.00;6.85;;;;;;;24.60;74.60;99695.28;4920406;28;20720;-79
2023/06/17 08:05:57;;;;;;;15.00;3.67;;;;;;;24.50;74.93;99673.34;4940445;28;20320;-78
2023/06/17 08:08:23;;;;;;;55.00;11.00;;;;;;;24.74;74.79;99673.72;4937204;28;20343;-76
2023/06/17 08:10:50;;;;;;;14.23;3.20;;;;;;;24.79;77.88;99695.94;4934161;28;20229;-77
2023/06/17 08:13:17;;;;;;;28.45;6.32;;;;;;;24.36;74.09;99584.13;4930293;28;20233;-78
2023/06/17 08:15:44;;;;;;;21.90;4.78;;;;;;;25.64;76.04;99742.00;4937545;29;20240;-82
2023/06/17 08:18:11;;;;;;;17.88;3.90;;;;;;;26.29;71.60;99717.03;4939010;28;20240;-76
2023/06/17 08:20:39;;;;;;;15.55;3.53;;;;;;;26.17;69.36;99650.97;4933136;28;20232;-81
2023/06/17 08:23:06;;;;;;;15.18;3.20;;;;;;;25.37;71.58;99557.00;4939239;28;20253;-82
2023/06/17 08:25:33;;;;;;;66.95;12.40;;;;;;;25.15;76.02;99599.00;4934276;28;20232;-79
2023/06/17 08:28:00;;;;;;;16.38;3.40;;;;;;;26.35;73.30;99679.59;4940715;28;20232;-78
2023/06/17 08:30:27;;;;;;;47.42;7.53;;;;;;;26.53;71.08;99646.75;4932500;28;20221;-81
2023/06/17 08:32:54;;;;;;;21.38;4.28;;;;;;;27.31;67.18;99650.28;4942506;28;20606;-77
2023/06/17 08:35:20;;;;;;;49.90;8.25;;;;;;;25.92;66.03;99432.31;4935342;28;20225;-80
2023/06/17 08:37:47;;;;;;;16.38;3.45;;;;;;;25.84;67.68;99446.41;4940001;28;20247;-79
2023/06/17 08:40:15;;;;;;;21.13;4.45;;;;;;;26.00;66.67;99432.63;4940298;28;20231;-78
2023/06/17 08:42:42;;;;;;;19.35;3.67;;;;;;;27.47;65.63;99574.88;4931602;28;20237;-79
2023/06/17 08:45:09;;;;;;;19.58;3.95;;;;;;;27.25;62.95;99476.97;4935334;28;20229;-79
2023/06/17 08:47:36;;;;;;;16.65;3.20;;;;;;;26.70;64.96;99410.50;4931277;28;20276;-83
2023/06/17 08:50:05;;;;;;;19.08;3.92;;;;;;;26.75;61.94;99376.63;4936058;28;20225;-80
2023/06/17 08:52:33;;;;;;;52.15;9.93;;;;;;;27.18;58.79;99342.72;4936189;28;20312;-83
2023/06/17 08:55:00;;;;;;;14.27;2.90;;;;;;;26.28;57.47;99184.09;4943091;28;20232;-82
2023/06/17 08:57:27;;;;;;;62.10;11.60;;;;;;;26.88;60.70;99295.19;4937567;28;20233;-81
2023/06/17 08:59:54;;;;;;;15.57;3.40;;;;;;;27.63;57.86;99327.47;4942079;28;20240;-80
2023/06/17 09:02:21;;;;;;;55.00;9.85;;;;;;;27.71;60.57;99355.75;4933689;28;20280;-80
2023/06/17 09:04:48;;;;;;;22.85;4.35;;;;;;;28.12;60.66;99389.63;4936720;29;20239;-79
2023/06/17 09:07:15;;;;;;;26.73;5.10;;;;;;;29.54;55.49;99386.09;4938488;28;20229;-91
2023/06/17 09:09:47;;;;;;;20.95;4.43;;;;;;;27.93;56.95;99210.03;4940154;28;20244;-79
2023/06/17 09:12:14;;;;;;;29.20;5.65;;;;;;;27.51;58.45;99193.50;4948875;28;20237;-77
2023/06/17 09:14:43;;;;;;;17.02;3.67;;;;;;;27.77;57.36;99195.97;4932576;28;20244;-77
2023/06/17 09:17:11;;;;;;;18.02;3.47;;;;;;;28.18;54.91;99185.28;4938888;28;20312;-78
2023/06/17 09:19:40;;;;;;;20.00;3.90;;;;;;;28.05;51.99;99076.72;4919065;28;20232;-77
2023/06/17 09:22:07;;;;;;;16.00;3.15;;;;;;;28.05;52.54;99082.16;4937614;28;20225;-76
2023/06/17 09:24:34;;;;;;;52.92;9.65;;;;;;;29.21;50.56;99156.53;4937611;28;20221;-82
2023/06/17 09:27:01;;;;;;;16.80;3.33;;;;;;;29.16;47.46;99027.25;4938857;28;20229;-76
2023/06/17 09:29:31;;;;;;;63.83;15.23;;;;;;;28.56;50.21;98999.00;4937295;28;20236;-81
2023/06/17 09:32:03;;;;;;;12.25;2.50;;;;;;;28.11;44.52;98762.81;4937019;28;20263;-82
2023/06/17 09:34:29;;;;;;;61.47;11.18;;;;;;;29.34;45.15;98935.72;4935273;28;20221;-79
2023/06/17 09:37:00;;;;;;;19.15;3.83;;;;;;;30.15;45.85;98993.63;4935552;28;20717;-82
2023/06/17 09:39:32;;;;;;;62.25;12.38;;;;;;;29.38;48.10;98964.41;4933472;28;20221;-82
2023/06/17 09:42:10;;;;;;;14.95;2.92;;;;;;;29.90;44.13;98903.19;4937643;28;20225;-79
2023/06/17 09:44:38;;;;;;;20.67;4.47;;;;;;;29.76;43.61;98829.22;4934650;28;20233;-80
2023/06/17 09:47:06;;;;;;;15.88;3.13;;;;;;;28.41;38.25;98427.53;4930543;28;20225;-80
2023/06/17 09:49:34;;;;;;;49.10;9.13;;;;;;;29.20;41.10;98640.28;4938952;28;20221;-80
2023/06/17 09:52:02;;;;;;;16.10;3.38;;;;;;;29.13;39.59;98537.56;4941046;28;20236;-81
2023/06/17 09:54:31;;;;;;;60.45;11.20;;;;;;;28.99;40.25;98539.78;4938566;28;20224;-79
2023/06/17 09:57:01;;;;;;;16.38;3.50;;;;;;;29.79;39.66;98617.25;4954359;28;20325;-78
2023/06/17 09:59:28;;;;;;;51.03;9.50;;;;;;;29.49;37.87;98446.84;4940555;28;20236;-79
2023/06/17 10:01:56;;;;;;;15.25;3.22;;;;;;;30.12;38.88;98576.81;4938184;28;20237;-82
2023/06/17 10:04:23;;;;;;;59.67;12.18;;;;;;;29.43;39.31;98471.97;4938207;28;20715;-80
2023/06/17 10:06:52;;;;;;;15.82;3.25;;;;;;;29.22;38.60;98398.72;4937995;28;20236;-79
2023/06/17 10:09:20;;;;;;;43.97;8.98;;;;;;;29.69;38.79;98472.06;4932748;28;20233;-79
2023/06/17 10:11:51;;;;;;;22.85;4.80;;;;;;;29.14;39.66;98400.47;4939751;28;20720;-80
2023/06/17 10:14:26;;;;;;;35.25;6.82;;;;;;;29.46;39.89;98463.50;4933044;28;20233;-79
2023/06/17 10:16:53;;;;;;;17.85;3.85;;;;;;;29.58;41.06;98515.88;4938816;29;20241;-79
2023/06/17 10:19:23;;;;;;;51.85;9.98;;;;;;;30.24;40.65;98605.56;4952572;28;20221;-84
2023/06/17 10:21:53;;;;;;;17.52;3.78;;;;;;;29.46;40.06;98451.75;4942185;28;20233;-83
2023/06/17 10:24:20;;;;;;;40.15;7.60;;;;;;;29.65;42.52;98579.63;4939169;28;20232;-81
2023/06/17 10:26:51;;;;;;;12.98;2.95;;;;;;;29.62;41.68;98539.06;4936841;28;20320;-80
2023/06/17 10:29:18;;;;;;;25.50;4.97;;;;;;;29.51;41.23;98496.56;4934725;28;20225;-79
2023/06/17 10:31:45;;;;;;;15.77;3.50;;;;;;;30.00;41.73;98602.53;4937116;28;20233;-85
2023/06/17 10:34:16;;;;;;;13.48;2.95;;;;;;;30.23;40.33;98560.22;4939890;28;20231;-81
2023/06/17 10:36:53;;;;;;;19.58;4.05;;;;;;;30.55;41.63;98650.50;4934329;28;20233;-78
2023/06/17 10:39:20;;;;;;;53.70;10.70;;;;;;;31.05;39.82;98639.03;4935574;28;20594;-80
2023/06/17 10:41:48;;;;;;;15.98;3.38;;;;;;;30.29;38.77;98457.84;4934889;28;20535;-78
2023/06/17 10:44:39;;;;;;;10.68;2.35;;;;;;;31.14;38.47;98564.38;4935098;28;20217;-91
2023/06/17 10:47:20;;;;;;;14.27;3.13;;;;;;;30.78;39.78;98527.28;4936473;28;20234;-80
2023/06/17 10:49:49;;;;;;;14.05;3.00;;;;;;;30.48;36.98;98343.09;4950550;29;20240;-79
2023/06/17 10:52:16;;;;;;;14.98;3.22;;;;;;;30.65;37.56;98409.53;4944547;28;20245;-80
2023/06/17 10:54:48;;;;;;;15.85;3.22;;;;;;;30.67;37.81;98399.31;4936812;28;20256;-79
2023/06/17 10:57:14;;;;;;;15.40;3.17;;;;;;;29.79;37.21;98224.94;4941742;28;20236;-77
2023/06/17 10:59:41;;;;;;;18.67;3.67;;;;;;;30.50;38.05;98398.34;4952716;28;20209;-79
2023/06/17 11:02:08;;;;;;;25.25;4.95;;;;;;;31.03;38.29;98480.00;4935525;28;20320;-79
2023/06/17 11:04:40;;;;;;;13.15;2.95;;;;;;;30.81;37.60;98382.31;4935023;28;20236;-78
2023/06/17 11:07:08;;;;;;;22.85;4.88;;;;;;;31.14;38.30;98471.53;4939140;28;20240;-85
2023/06/17 11:09:35;;;;;;;16.45;3.38;;;;;;;30.72;38.60;98413.31;4928845;28;20312;-79
2023/06/17 11:12:03;;;;;;;18.77;3.60;;;;;;;30.13;38.57;98314.97;4931746;28;20226;-78
2023/06/17 11:14:32;;;;;;;24.33;5.05;;;;;;;30.01;38.54;98326.25;4931190;28;20402;-78
2023/06/17 11:16:59;;;;;;;18.60;3.80;;;;;;;31.89;37.23;98520.00;4939703;28;20237;-78
2023/06/17 11:19:26;;;;;;;45.83;8.63;;;;;;;32.24;35.42;98404.00;4937031;28;20332;-78